Pembroke Lakes, Florida
Current Conditions -  °F | °C
As of 6:53 PM on Friday 24 Oct 2014 (Local Time) from KHWO Reporting Station
Overcast Overcast  
Wind Chill: 78°   Ceiling: 4200
Heat Index: 80°   Visibility: 10mi
Dew Point: 68°   Wind: 9mph
Humidity: 71%   Direction: 30°NNE
Pressure: 29.83"   Gusts: NA
Location:  26.026°N, 80.2963°W
Report Text: KHWO 242253Z AUTO 03008KT 10SM SCT030 BKN042 OVC049 26/20 A2983 RMK AO2 SLP101 T02560200
Loading
Personal Weather Stations






























Interactive Weather Map
Tropical Storm Tracking
New forecast layout! Learn more

10-Day Weather Forecast

Advertisements
Track Severe Weather on mobile